createdAt,value
2022-09-06T00:02:19.067Z,72.93
2022-09-06T00:04:45.469Z,72.76
2022-09-06T00:07:11.981Z,73.71
2022-09-06T00:09:38.376Z,74.12
2022-09-06T00:12:04.945Z,73.87
2022-09-06T00:14:31.346Z,72.43
2022-09-06T00:16:57.737Z,72.28
2022-09-06T00:19:24.142Z,72.34
2022-09-06T00:21:50.547Z,73.05
2022-09-06T00:24:16.933Z,73.34
2022-09-06T00:26:43.369Z,72.61
2022-09-06T00:29:09.859Z,71.94
2022-09-06T00:31:36.354Z,72.23
2022-09-06T00:34:02.893Z,72.88
2022-09-06T00:36:29.316Z,72.67
2022-09-06T00:38:56.400Z,72.19
2022-09-06T00:41:22.793Z,71.99
2022-09-06T00:43:49.224Z,71.75
2022-09-06T00:46:18.495Z,72.39
2022-09-06T00:48:45.486Z,72.54
2022-09-06T00:51:13.302Z,72.80
2022-09-06T00:53:39.965Z,73.18
2022-09-06T00:56:06.537Z,72.46
2022-09-06T00:58:33.127Z,72.87
2022-09-06T01:00:59.584Z,73.31
2022-09-06T01:03:26.357Z,73.69
2022-09-06T01:06:14.690Z,74.75
2022-09-06T01:09:05.746Z,75.74
2022-09-06T01:11:56.493Z,75.62
2022-09-06T01:14:44.689Z,75.23
2022-09-06T01:17:19.053Z,75.70
2022-09-06T01:20:27.172Z,77.55
2022-09-06T01:23:06.963Z,77.35
2022-09-06T01:25:59.916Z,76.30
2022-09-06T01:28:45.365Z,77.41
2022-09-06T01:31:48.382Z,77.58
2022-09-06T01:34:21.741Z,78.52
2022-09-06T01:37:09.004Z,77.24
2022-09-06T01:39:37.393Z,78.04
2022-09-06T01:42:15.621Z,77.11
2022-09-06T01:44:53.649Z,76.42
2022-09-06T01:47:25.133Z,76.71
2022-09-06T01:50:24.109Z,76.65
2022-09-06T01:52:56.319Z,75.63
2022-09-06T01:56:07.706Z,76.08
2022-09-06T01:58:59.981Z,76.04
2022-09-06T02:01:49.577Z,75.15
2022-09-06T02:04:34.055Z,75.45
2022-09-06T02:07:03.366Z,75.46
2022-09-06T02:09:34.985Z,75.88
2022-09-06T02:12:02.567Z,74.76
2022-09-06T02:14:36.206Z,74.60
2022-09-06T02:17:05.060Z,75.31
2022-09-06T02:19:43.259Z,75.42
2022-09-06T02:22:12.181Z,75.24
2022-09-06T02:24:40.650Z,75.52
2022-09-06T02:27:07.672Z,75.35
2022-09-06T02:29:34.842Z,74.92
2022-09-06T02:32:08.354Z,75.38
2022-09-06T02:34:37.960Z,74.45
2022-09-06T02:37:05.037Z,74.98
2022-09-06T02:39:31.475Z,74.98
2022-09-06T02:41:58.485Z,73.99
2022-09-06T02:44:24.881Z,74.61
2022-09-06T02:46:55.053Z,74.16
2022-09-06T02:49:23.864Z,74.31
2022-09-06T02:51:50.849Z,73.89
2022-09-06T02:54:17.229Z,73.93
2022-09-06T02:56:43.627Z,73.71
2022-09-06T02:59:10.028Z,73.47
2022-09-06T03:01:36.451Z,74.34
2022-09-06T03:04:03.051Z,74.40
2022-09-06T03:06:30.397Z,75.05
2022-09-06T03:08:56.832Z,75.05
2022-09-06T03:11:23.223Z,74.57
2022-09-06T03:13:51.021Z,74.91
2022-09-06T03:16:17.490Z,75.60
2022-09-06T03:18:43.992Z,76.13
2022-09-06T03:21:10.620Z,75.82
2022-09-06T03:23:38.844Z,75.78
2022-09-06T03:26:06.300Z,76.36
2022-09-06T03:28:32.703Z,76.80
2022-09-06T03:30:59.213Z,76.80
2022-09-06T03:33:25.748Z,76.96
2022-09-06T03:35:57.615Z,77.29
2022-09-06T03:38:25.126Z,77.58
2022-09-06T03:40:52.863Z,77.45
2022-09-06T03:43:19.823Z,77.39
2022-09-06T03:45:48.130Z,77.05
2022-09-06T03:48:15.388Z,76.89
2022-09-06T03:50:46.173Z,77.32
2022-09-06T03:53:12.920Z,77.75
2022-09-06T03:55:39.454Z,78.12
2022-09-06T03:58:05.876Z,78.11
2022-09-06T04:00:33.533Z,77.93
2022-09-06T04:03:01.930Z,77.19
2022-09-06T04:05:28.490Z,76.85
2022-09-06T04:07:54.923Z,76.55
2022-09-06T04:10:21.428Z,77.07
2022-09-06T04:12:47.926Z,77.91
2022-09-06T04:15:14.371Z,78.71
2022-09-06T04:17:45.093Z,78.70
2022-09-06T04:20:12.466Z,79.17
2022-09-06T04:22:39.098Z,78.27
2022-09-06T04:25:06.027Z,78.60
2022-09-06T04:27:32.817Z,78.92
2022-09-06T04:29:59.222Z,79.27
2022-09-06T04:32:25.604Z,78.81
2022-09-06T04:34:51.987Z,78.23
2022-09-06T04:37:20.012Z,78.24
2022-09-06T04:39:47.064Z,78.66
2022-09-06T04:42:13.487Z,79.16
2022-09-06T04:44:39.929Z,79.97
2022-09-06T04:47:12.600Z,79.48
2022-09-06T04:49:38.992Z,78.70
2022-09-06T04:52:05.393Z,79.03
2022-09-06T04:54:31.893Z,79.97
2022-09-06T04:56:58.299Z,80.37
2022-09-06T04:59:24.865Z,80.54
2022-09-06T05:01:51.494Z,80.28
2022-09-06T05:04:17.960Z,79.91
2022-09-06T05:06:44.921Z,79.20
2022-09-06T05:09:11.779Z,79.76
2022-09-06T05:11:38.173Z,80.30
2022-09-06T05:14:04.739Z,80.97
2022-09-06T05:16:31.213Z,80.06
2022-09-06T05:18:57.769Z,80.19
2022-09-06T05:21:24.216Z,80.06
2022-09-06T05:23:52.596Z,80.24
2022-09-06T05:26:20.735Z,80.24
2022-09-06T05:28:47.312Z,80.26
2022-09-06T05:31:25.918Z,79.43
2022-09-06T05:33:53.495Z,80.03
2022-09-06T05:36:20.502Z,79.60
2022-09-06T05:38:46.892Z,79.60
2022-09-06T05:41:13.322Z,79.65
2022-09-06T05:43:39.882Z,79.80
2022-09-06T05:46:06.408Z,79.53
2022-09-06T05:48:36.788Z,79.06
2022-09-06T05:51:06.284Z,79.00
2022-09-06T05:53:36.560Z,78.73
2022-09-06T05:56:03.873Z,78.44
2022-09-06T05:58:30.588Z,78.35
2022-09-06T06:01:31.282Z,78.21
2022-09-06T06:03:58.882Z,78.04
2022-09-06T06:06:27.457Z,78.13
2022-09-06T06:08:54.379Z,77.84
2022-09-06T06:11:20.944Z,78.16
2022-09-06T06:13:47.364Z,78.07
2022-09-06T06:16:15.890Z,78.16
2022-09-06T06:18:42.417Z,78.33
2022-09-06T06:21:09.479Z,78.40
2022-09-06T06:23:36.116Z,78.28
2022-09-06T06:26:02.751Z,77.87
2022-09-06T06:28:29.229Z,77.38
2022-09-06T06:30:55.703Z,77.14
2022-09-06T06:33:22.141Z,77.09
2022-09-06T06:36:01.672Z,77.21
2022-09-06T06:38:37.475Z,77.67
2022-09-06T06:41:06.979Z,77.15
2022-09-06T06:43:37.502Z,77.44
2022-09-06T06:46:11.033Z,77.27
2022-09-06T06:48:39.664Z,77.15
2022-09-06T06:51:06.279Z,76.73
2022-09-06T06:53:32.844Z,76.87
2022-09-06T06:55:59.410Z,76.37
2022-09-06T06:58:25.953Z,76.40
2022-09-06T07:00:52.417Z,76.12
2022-09-06T07:03:18.944Z,76.22
2022-09-06T07:08:33.634Z,75.68
2022-09-06T07:11:00.180Z,75.36
2022-09-06T07:13:26.639Z,75.02
2022-09-06T07:15:53.079Z,74.97
2022-09-06T07:18:19.559Z,75.00
2022-09-06T07:26:27.947Z,73.04
2022-09-06T07:28:55.650Z,72.73
2022-09-06T07:34:08.768Z,71.65
2022-09-06T07:36:35.323Z,70.82
2022-09-06T07:39:01.791Z,70.00
2022-09-06T07:41:28.194Z,69.87
2022-09-06T07:43:54.759Z,68.69
2022-09-06T07:46:22.041Z,68.23
2022-09-06T07:48:49.636Z,67.82
2022-09-06T07:51:18.050Z,66.91
2022-09-06T07:53:50.550Z,66.21
2022-09-06T07:56:20.310Z,65.38
2022-09-06T07:58:46.805Z,64.56
2022-09-06T08:01:16.030Z,64.15
2022-09-06T08:03:42.580Z,63.88
2022-09-06T08:06:09.913Z,63.70
2022-09-06T08:11:27.350Z,62.08
2022-09-06T08:13:55.548Z,62.12
2022-09-06T08:16:25.200Z,61.31
2022-09-06T08:18:53.478Z,60.58
2022-09-06T08:21:20.852Z,60.67
2022-09-06T08:23:48.938Z,60.67
2022-09-06T08:26:16.678Z,59.95
2022-09-06T08:28:43.430Z,59.54
2022-09-06T08:31:15.034Z,58.65
2022-09-06T08:33:42.426Z,58.20
2022-09-06T08:36:09.607Z,58.67
2022-09-06T08:38:36.360Z,58.08
2022-09-06T08:41:18.185Z,57.04
2022-09-06T08:47:01.176Z,56.13
2022-09-06T08:49:31.354Z,56.53
2022-09-06T08:52:29.970Z,55.63
2022-09-06T08:55:02.025Z,55.50
2022-09-06T08:57:40.609Z,54.77
2022-09-06T09:00:11.304Z,54.47
2022-09-06T09:02:57.459Z,53.64
2022-09-06T09:05:28.379Z,53.83
2022-09-06T09:08:03.838Z,53.80
2022-09-06T09:10:32.464Z,53.21
2022-09-06T09:13:01.324Z,52.60
2022-09-06T09:15:28.819Z,52.65
2022-09-06T09:17:55.517Z,52.70
2022-09-06T09:20:22.048Z,51.74
2022-09-06T09:22:48.651Z,51.28
2022-09-06T09:25:24.706Z,50.61
2022-09-06T09:27:58.240Z,50.29
2022-09-06T09:33:21.906Z,48.23
2022-09-06T09:35:48.638Z,48.14
2022-09-06T09:38:42.592Z,47.08
2022-09-06T09:41:11.003Z,47.50
2022-09-06T09:43:42.312Z,47.27
2022-09-06T09:46:15.960Z,47.21
2022-09-06T09:49:09.575Z,46.63
2022-09-06T09:51:41.736Z,47.05
2022-09-06T09:54:10.616Z,46.56
2022-09-06T09:56:36.889Z,47.22
2022-09-06T09:59:08.330Z,47.32
2022-09-06T10:01:34.764Z,48.00
2022-09-06T10:09:38.893Z,48.77
2022-09-06T10:12:05.608Z,48.60
2022-09-06T10:14:40.708Z,48.29
2022-09-06T10:17:07.225Z,48.01
2022-09-06T10:19:40.985Z,48.47
2022-09-06T10:22:23.720Z,48.84
2022-09-06T10:25:03.371Z,49.14
2022-09-06T10:27:30.980Z,47.81
2022-09-06T10:30:02.164Z,47.50
2022-09-06T10:32:34.550Z,47.31
2022-09-06T10:35:25.025Z,48.48
2022-09-06T10:38:14.377Z,48.29
2022-09-06T10:41:29.503Z,47.75
2022-09-06T10:44:15.986Z,48.27
2022-09-06T10:46:44.917Z,47.37
2022-09-06T10:49:15.900Z,48.26
2022-09-06T10:51:46.797Z,48.66
2022-09-06T10:54:14.092Z,48.66
2022-09-06T10:56:47.560Z,48.76
2022-09-06T10:59:41.918Z,48.49
2022-09-06T11:02:18.895Z,47.44
2022-09-06T11:07:37.949Z,48.21
2022-09-06T11:10:30.834Z,48.02
2022-09-06T11:13:05.208Z,48.16
2022-09-06T11:15:37.579Z,47.89
2022-09-06T11:18:11.953Z,48.84
2022-09-06T11:20:42.487Z,49.03
2022-09-06T11:23:25.886Z,48.59
2022-09-06T11:26:14.769Z,48.87
2022-09-06T11:28:47.160Z,48.88
2022-09-06T11:34:20.160Z,48.94
2022-09-06T11:36:48.681Z,48.48
2022-09-06T11:42:44.125Z,48.56
2022-09-06T11:45:10.413Z,48.92
2022-09-06T11:47:39.852Z,49.16
2022-09-06T11:50:21.521Z,49.06
2022-09-06T11:53:12.906Z,48.71
2022-09-06T11:55:41.354Z,48.58
2022-09-06T11:58:19.998Z,48.61
2022-09-06T12:01:07.209Z,48.69
2022-09-06T12:06:32.407Z,49.88
2022-09-06T12:08:59.394Z,50.26
2022-09-06T12:11:30.486Z,50.19
2022-09-06T12:14:03.008Z,49.58
2022-09-06T12:16:55.640Z,49.89
2022-09-06T12:19:44.468Z,50.12
2022-09-06T12:22:26.418Z,50.30
2022-09-06T12:25:01.685Z,49.97
2022-09-06T12:27:52.601Z,50.15
2022-09-06T12:30:33.102Z,50.35
2022-09-06T12:33:00.295Z,51.48
2022-09-06T12:38:23.929Z,51.18
2022-09-06T12:40:58.434Z,50.72
2022-09-06T12:43:25.212Z,51.30
2022-09-06T12:45:52.476Z,50.76
2022-09-06T12:48:29.756Z,49.94
2022-09-06T12:51:02.423Z,50.72
2022-09-06T12:53:31.417Z,50.49
2022-09-06T12:56:14.406Z,49.13
2022-09-06T12:58:40.859Z,48.81
2022-09-06T13:01:31.252Z,49.91
2022-09-06T13:04:11.909Z,48.56
2022-09-06T13:06:42.312Z,47.88
2022-09-06T13:09:12.150Z,47.02
2022-09-06T13:11:43.523Z,46.55
2022-09-06T13:14:17.920Z,45.92
2022-09-06T13:16:50.348Z,44.62
2022-09-06T13:19:18.960Z,44.49
2022-09-06T13:21:46.895Z,43.88
2022-09-06T13:24:35.314Z,42.30
2022-09-06T13:27:25.647Z,39.35
2022-09-06T13:29:56.723Z,39.43
2022-09-06T13:32:23.355Z,38.39
2022-09-06T13:34:56.628Z,37.09
2022-09-06T13:37:28.783Z,35.93
2022-09-06T13:39:57.443Z,35.42
2022-09-06T13:42:24.011Z,33.88
2022-09-06T13:44:51.108Z,34.62
2022-09-06T13:47:17.527Z,33.72
2022-09-06T13:49:43.931Z,31.72
2022-09-06T13:52:10.465Z,31.08
2022-09-06T13:54:36.901Z,30.03
2022-09-06T13:57:03.408Z,30.67
2022-09-06T13:59:30.429Z,31.74
2022-09-06T14:02:09.709Z,32.41
2022-09-06T14:04:36.903Z,31.69
2022-09-06T14:07:04.117Z,31.39
2022-09-06T14:09:30.653Z,31.91
2022-09-06T14:11:57.095Z,33.02
2022-09-06T14:14:24.379Z,31.62
2022-09-06T14:16:50.920Z,32.10
2022-09-06T14:19:17.352Z,31.17
2022-09-06T14:21:43.775Z,31.37
2022-09-06T14:24:10.238Z,31.95
2022-09-06T14:26:36.850Z,32.11
2022-09-06T14:29:03.653Z,32.78
2022-09-06T14:31:32.450Z,32.46
2022-09-06T14:33:58.984Z,32.05
2022-09-06T14:36:29.136Z,30.48
2022-09-06T14:38:57.574Z,30.29
2022-09-06T14:41:24.021Z,30.11
2022-09-06T14:43:52.434Z,29.72
2022-09-06T14:46:20.134Z,30.42
2022-09-06T14:48:46.934Z,29.89
2022-09-06T14:51:20.769Z,29.36
2022-09-06T14:53:48.790Z,29.16
2022-09-06T14:56:15.764Z,27.96
2022-09-06T14:58:42.802Z,27.66
2022-09-06T15:01:14.426Z,28.12
2022-09-06T15:03:42.883Z,27.83
2022-09-06T15:06:10.508Z,28.05
2022-09-06T15:08:37.911Z,29.73
2022-09-06T15:11:07.946Z,28.93
2022-09-06T15:13:37.011Z,28.71
2022-09-06T15:16:05.106Z,28.51
2022-09-06T15:18:31.810Z,29.29
2022-09-06T15:20:58.221Z,27.44
2022-09-06T15:23:27.262Z,26.81
2022-09-06T15:25:54.127Z,27.84
2022-09-06T15:28:20.628Z,29.43
2022-09-06T15:30:47.638Z,30.25
2022-09-06T15:33:14.980Z,31.66
2022-09-06T15:35:44.810Z,33.79
2022-09-06T15:38:11.902Z,33.73
2022-09-06T15:40:38.850Z,34.42
2022-09-06T15:43:05.352Z,34.49
2022-09-06T15:45:47.147Z,33.41
2022-09-06T15:48:15.824Z,33.30
2022-09-06T15:50:51.303Z,32.00
2022-09-06T15:53:18.710Z,30.83
2022-09-06T15:55:57.275Z,31.54
2022-09-06T15:58:25.123Z,31.00
2022-09-06T16:01:06.763Z,30.96
2022-09-06T16:03:36.931Z,31.03
2022-09-06T16:09:01.627Z,31.37
2022-09-06T16:11:29.723Z,32.54
2022-09-06T16:13:56.348Z,33.75
2022-09-06T16:16:23.095Z,34.00
2022-09-06T16:18:49.637Z,34.97
2022-09-06T16:21:23.781Z,35.53
2022-09-06T16:23:55.097Z,36.26
2022-09-06T16:26:22.748Z,36.23
2022-09-06T16:28:50.439Z,37.16
2022-09-06T16:31:17.487Z,37.56
2022-09-06T16:33:45.470Z,37.54
2022-09-06T16:36:13.793Z,37.50
2022-09-06T16:38:40.502Z,38.01
2022-09-06T16:41:17.169Z,38.58
2022-09-06T16:43:44.680Z,39.07
2022-09-06T16:46:12.017Z,39.76
2022-09-06T16:48:40.505Z,39.84
2022-09-06T16:51:15.858Z,41.37
2022-09-06T16:53:43.208Z,42.88
2022-09-06T16:56:11.204Z,42.25
2022-09-06T16:58:39.040Z,42.27
2022-09-06T17:01:07.736Z,41.45
2022-09-06T17:03:34.967Z,41.76
2022-09-06T17:06:01.421Z,42.22
2022-09-06T17:08:27.948Z,42.28
2022-09-06T17:10:54.777Z,42.86
2022-09-06T17:13:21.179Z,43.09
2022-09-06T17:16:13.535Z,44.08
2022-09-06T17:18:39.970Z,43.90
2022-09-06T17:21:07.409Z,44.34
2022-09-06T17:23:35.324Z,44.32
2022-09-06T17:26:01.997Z,44.45
2022-09-06T17:28:28.737Z,44.86
2022-09-06T17:30:55.328Z,45.47
2022-09-06T17:33:23.654Z,45.56
2022-09-06T17:35:50.053Z,45.30
2022-09-06T17:38:16.454Z,45.32
2022-09-06T17:40:43.399Z,46.01
2022-09-06T17:43:09.975Z,46.50
2022-09-06T17:45:42.409Z,47.43
2022-09-06T17:48:09.088Z,47.34
2022-09-06T17:50:35.483Z,48.18
2022-09-06T17:53:02.127Z,47.99
2022-09-06T17:55:29.116Z,48.55
2022-09-06T17:57:56.507Z,48.30
2022-09-06T18:00:24.012Z,48.57
2022-09-06T18:02:50.420Z,48.78
2022-09-06T18:05:16.994Z,48.80
2022-09-06T18:07:43.446Z,48.72
2022-09-06T18:10:10.555Z,48.58
2022-09-06T18:12:36.957Z,48.68
2022-09-06T18:15:03.478Z,48.43
2022-09-06T18:17:30.553Z,49.08
2022-09-06T18:19:57.620Z,49.54
2022-09-06T18:22:24.348Z,49.66
2022-09-06T18:24:55.024Z,49.43
2022-09-06T18:27:24.029Z,51.02
2022-09-06T18:29:50.453Z,51.86
2022-09-06T18:32:16.844Z,51.46
2022-09-06T18:34:43.250Z,52.47
2022-09-06T18:37:09.631Z,53.26
2022-09-06T18:39:36.094Z,52.88
2022-09-06T18:42:06.991Z,52.90
2022-09-06T18:44:34.244Z,52.71
2022-09-06T18:47:02.429Z,52.19
2022-09-06T18:49:30.000Z,52.32
2022-09-06T18:51:56.485Z,52.09
2022-09-06T18:54:23.013Z,52.05
2022-09-06T18:56:50.102Z,52.13
2022-09-06T18:59:16.908Z,52.44
2022-09-06T19:01:43.489Z,52.50
2022-09-06T19:04:10.739Z,52.52
2022-09-06T19:06:39.352Z,53.18
2022-09-06T19:09:08.575Z,53.94
2022-09-06T19:11:35.279Z,54.17
2022-09-06T19:14:02.263Z,54.63
2022-09-06T19:16:29.435Z,55.83
2022-09-06T19:18:56.744Z,56.13
2022-09-06T19:21:27.679Z,56.18
2022-09-06T19:24:02.496Z,56.95
2022-09-06T19:26:31.596Z,57.56
2022-09-06T19:29:00.105Z,57.81
2022-09-06T19:31:29.879Z,58.25
2022-09-06T19:33:56.488Z,58.37
2022-09-06T19:36:23.794Z,59.00
2022-09-06T19:39:06.338Z,59.54
2022-09-06T19:41:35.921Z,59.90
2022-09-06T19:44:05.324Z,61.78
2022-09-06T19:46:32.052Z,61.15
2022-09-06T19:48:58.748Z,61.34
2022-09-06T19:51:25.537Z,61.60
2022-09-06T19:53:54.061Z,61.96
2022-09-06T19:56:32.544Z,62.92
2022-09-06T19:59:00.998Z,62.74
2022-09-06T20:01:29.574Z,63.14
2022-09-06T20:03:56.713Z,63.08
2022-09-06T20:06:23.324Z,63.54
2022-09-06T20:08:54.961Z,64.29
2022-09-06T20:11:22.646Z,63.44
2022-09-06T20:13:49.185Z,63.82
2022-09-06T20:16:16.258Z,63.65
2022-09-06T20:18:42.848Z,63.76
2022-09-06T20:21:09.935Z,64.50
2022-09-06T20:23:36.658Z,65.12
2022-09-06T20:26:13.373Z,65.14
2022-09-06T20:28:39.864Z,65.10
2022-09-06T20:31:10.821Z,64.91
2022-09-06T20:33:37.759Z,65.72
2022-09-06T20:36:06.433Z,65.10
2022-09-06T20:38:34.695Z,67.71
2022-09-06T20:41:16.178Z,68.84
2022-09-06T20:43:42.703Z,70.25
2022-09-06T20:46:19.641Z,70.63
2022-09-06T20:48:46.753Z,72.06
2022-09-06T20:51:18.555Z,73.51
2022-09-06T20:53:51.453Z,75.20
2022-09-06T20:56:23.880Z,74.43
2022-09-06T20:58:55.497Z,75.45
2022-09-06T21:01:26.872Z,75.94
2022-09-06T21:03:56.062Z,75.67
2022-09-06T21:06:23.279Z,74.60
2022-09-06T21:08:49.762Z,75.01
2022-09-06T21:11:16.345Z,75.90
2022-09-06T21:13:42.780Z,77.10
2022-09-06T21:16:09.534Z,76.92
2022-09-06T21:18:36.219Z,77.04
2022-09-06T21:21:07.788Z,78.07
2022-09-06T21:23:36.826Z,77.50
2022-09-06T21:26:10.973Z,76.19
2022-09-06T21:28:39.717Z,76.04
2022-09-06T21:31:17.743Z,76.76
2022-09-06T21:33:49.565Z,75.99
2022-09-06T21:36:18.266Z,75.52
2022-09-06T21:38:46.743Z,76.08
2022-09-06T21:41:14.704Z,75.27
2022-09-06T21:43:41.471Z,75.64
2022-09-06T21:46:14.458Z,75.78
2022-09-06T21:48:43.663Z,76.04
2022-09-06T21:51:13.492Z,76.10
2022-09-06T21:53:40.681Z,76.22
2022-09-06T21:56:07.361Z,75.47
2022-09-06T21:58:34.046Z,75.20
2022-09-06T22:01:01.412Z,75.14
2022-09-06T22:03:29.856Z,76.31
2022-09-06T22:05:56.276Z,78.33
2022-09-06T22:08:23.447Z,78.04
2022-09-06T22:10:50.215Z,79.36
2022-09-06T22:13:18.396Z,79.89
2022-09-06T22:15:44.980Z,81.11
2022-09-06T22:18:11.968Z,81.76
2022-09-06T22:20:38.645Z,82.15
2022-09-06T22:23:06.448Z,82.21
2022-09-06T22:25:33.747Z,81.73
2022-09-06T22:28:00.505Z,81.42
2022-09-06T22:30:26.964Z,81.29
2022-09-06T22:32:53.848Z,80.77
2022-09-06T22:35:21.095Z,81.12
2022-09-06T22:37:47.486Z,82.96
2022-09-06T22:40:14.039Z,83.31
2022-09-06T22:42:40.419Z,84.24
2022-09-06T22:45:07.249Z,85.61
2022-09-06T22:47:33.813Z,86.61
2022-09-06T22:50:00.208Z,87.31
2022-09-06T22:52:26.646Z,88.39
2022-09-06T22:54:53.042Z,87.85
2022-09-06T22:57:19.462Z,87.45
2022-09-06T22:59:45.855Z,88.36
2022-09-06T23:02:12.237Z,88.92
2022-09-06T23:04:38.697Z,89.82
2022-09-06T23:07:05.918Z,90.32
2022-09-06T23:09:32.300Z,90.26
2022-09-06T23:11:58.690Z,89.92
2022-09-06T23:14:27.844Z,90.14
2022-09-06T23:16:54.302Z,90.80
2022-09-06T23:19:20.685Z,90.59
2022-09-06T23:21:47.071Z,90.87
2022-09-06T23:24:13.570Z,90.93
2022-09-06T23:26:39.992Z,91.17
2022-09-06T23:29:07.231Z,91.19
2022-09-06T23:31:33.690Z,90.60
2022-09-06T23:34:01.264Z,90.37
2022-09-06T23:36:28.496Z,90.35
2022-09-06T23:38:55.777Z,89.84
2022-09-06T23:41:22.692Z,89.81
2022-09-06T23:43:49.513Z,90.17
2022-09-06T23:46:16.206Z,90.46
2022-09-06T23:48:43.400Z,90.58
2022-09-06T23:51:10.527Z,90.40
2022-09-06T23:53:37.031Z,90.49
2022-09-06T23:56:03.815Z,89.89
2022-09-06T23:58:30.348Z,90.12
